Time;durP1;ratioP1;P1;durP2;ratioP2;P2;SDS_P1;SDS_P2;PMS_P1;PMS_P2;Temp;Humidity;BMP_temperature;BMP_pressure;BME280_temperature;BME280_humidity;BME280_pressure;Samples;Min_cycle;Max_cycle;Signal;HPM_P1;HPM_P2
2022/10/03 00:04:59;;;;;;;7.27;2.23;;;;;;;9.93;79.07;100067.09;31120580;28;96697;-67
2022/10/03 00:20:20;;;;;;;3.93;1.50;;;;;;;10.23;79.23;100060.19;31119015;28;96773;-67
2022/10/03 00:35:26;;;;;;;8.07;1.53;;;;;;;10.32;79.07;100059.16;31117854;28;97179;-66
2022/10/03 00:50:41;;;;;;;6.00;1.70;;;;;;;10.03;79.20;100064.22;31115809;28;97382;-63
2022/10/03 01:05:51;;;;;;;8.00;1.53;;;;;;;9.86;79.21;100069.59;31115326;28;97560;-65
2022/10/03 01:20:57;;;;;;;7.77;1.70;;;;;;;9.96;79.16;100072.06;31112853;28;97032;-70
2022/10/03 01:35:57;;;;;;;6.77;2.50;;;;;;;9.88;79.71;100083.53;31111921;28;96737;-69
2022/10/03 01:51:06;;;;;;;9.55;2.22;;;;;;;10.09;79.81;100090.19;31109423;28;96780;-65
2022/10/03 02:06:09;;;;;;;12.43;1.73;;;;;;;10.15;79.70;100084.16;31109635;28;97108;-68
2022/10/03 02:21:20;;;;;;;7.17;1.93;;;;;;;10.24;78.74;100092.97;31107390;28;96789;-68
2022/10/03 02:36:43;;;;;;;8.23;1.77;;;;;;;10.36;79.00;100112.09;31105860;28;96742;-69
2022/10/03 02:52:09;;;;;;;5.87;2.33;;;;;;;10.41;78.81;100121.22;31100681;28;96765;-70
2022/10/03 03:07:37;;;;;;;8.97;2.33;;;;;;;10.47;78.97;100122.38;31101556;28;97458;-70
2022/10/03 03:22:56;;;;;;;7.60;2.17;;;;;;;10.49;78.89;100131.03;31101099;28;97722;-71
2022/10/03 03:38:09;;;;;;;9.53;2.43;;;;;;;10.47;78.39;100131.22;31098727;28;97402;-68
2022/10/03 03:53:28;;;;;;;11.90;2.50;;;;;;;10.47;78.05;100141.03;31098570;28;97413;-68
2022/10/03 04:09:16;;;;;;;5.33;1.73;;;;;;;10.47;77.79;100149.88;31100206;28;96970;-66
2022/10/03 04:24:36;;;;;;;7.90;2.40;;;;;;;10.46;78.46;100155.38;31112486;28;96832;-68
2022/10/03 04:40:06;;;;;;;9.30;3.13;;;;;;;10.42;78.64;100154.03;31112507;28;97162;-71
2022/10/03 04:55:24;;;;;;;8.50;2.07;;;;;;;10.44;78.29;100141.38;31113388;28;97501;-69
2022/10/03 05:10:43;;;;;;;10.20;2.17;;;;;;;10.50;77.90;100136.19;31111588;28;96753;-69
2022/10/03 05:26:12;;;;;;;9.33;2.77;;;;;;;10.44;77.78;100136.03;31108857;28;96721;-69
2022/10/03 05:41:15;;;;;;;7.93;2.13;;;;;;;10.41;78.30;100147.03;31098107;28;96836;-70
2022/10/03 05:56:56;;;;;;;5.53;2.20;;;;;;;10.58;78.26;100155.81;31107195;28;97596;-68
2022/10/03 06:12:00;;;;;;;7.83;2.40;;;;;;;10.70;78.00;100172.28;31106869;28;96885;-71
2022/10/03 06:27:24;;;;;;;11.47;2.67;;;;;;;10.68;78.23;100161.78;31103011;28;96684;-69
2022/10/03 06:42:43;;;;;;;7.93;2.67;;;;;;;10.72;78.17;100187.09;31101420;28;97114;-62
2022/10/03 06:58:19;;;;;;;6.37;1.90;;;;;;;10.78;78.13;100209.53;31101013;28;96717;-62
2022/10/03 07:13:31;;;;;;;10.73;2.50;;;;;;;11.05;78.13;100202.94;31098995;28;97535;-68
2022/10/03 07:28:56;;;;;;;4.87;1.47;;;;;;;11.15;77.99;100208.91;31096489;28;107368;-71
2022/10/03 07:44:08;;;;;;;4.93;1.37;;;;;;;11.47;78.11;100232.94;31102077;28;96912;-69
2022/10/03 07:59:44;;;;;;;6.87;1.80;;;;;;;11.72;77.27;100244.28;31119265;28;97454;-71
2022/10/03 08:15:09;;;;;;;3.17;1.50;;;;;;;12.44;76.81;100251.13;31113018;28;96841;-62
2022/10/03 08:30:34;;;;;;;2.67;1.10;;;;;;;13.47;74.85;100262.03;31103660;28;97594;-67
2022/10/03 08:45:52;;;;;;;4.20;1.20;;;;;;;12.73;74.24;100276.22;31113487;28;96750;-68
2022/10/03 09:01:31;;;;;;;4.53;1.40;;;;;;;12.10;75.05;100278.28;31109658;28;96945;-61
2022/10/03 09:16:54;;;;;;;4.60;1.33;;;;;;;12.43;75.10;100273.50;31109934;28;96753;-61
2022/10/03 09:32:06;;;;;;;38.77;5.27;;;;;;;14.47;72.63;100290.88;31109845;28;96653;-65
2022/10/03 09:47:21;;;;;;;5.57;1.20;;;;;;;14.12;71.27;100304.97;31108088;28;96866;-71
2022/10/03 10:02:43;;;;;;;8.70;1.50;;;;;;;14.94;69.19;100304.66;31107374;28;96766;-69
2022/10/03 10:17:59;;;;;;;5.83;1.30;;;;;;;15.34;68.51;100312.94;31105795;28;97622;-69
2022/10/03 10:32:59;;;;;;;6.53;1.70;;;;;;;15.21;65.99;100317.22;31102967;28;96820;-67
2022/10/03 10:48:20;;;;;;;4.93;1.25;;;;;;;14.22;66.02;100316.19;31101249;28;96806;-69
2022/10/03 11:04:11;;;;;;;7.37;1.27;;;;;;;13.69;67.04;100316.44;31100878;28;97516;-69
2022/10/03 11:19:42;;;;;;;26.07;3.80;;;;;;;13.59;68.40;100312.44;31098676;28;96807;-68
2022/10/03 11:34:53;;;;;;;3.57;1.13;;;;;;;15.13;66.89;100332.63;31098042;28;97532;-70
2022/10/03 11:50:18;;;;;;;2.77;1.27;;;;;;;13.58;67.71;100340.19;31096819;28;96995;-70
2022/10/03 12:05:45;;;;;;;5.27;2.03;;;;;;;12.93;69.83;100348.72;31096072;28;97532;-71
2022/10/03 12:21:02;;;;;;;4.33;1.70;;;;;;;12.58;70.85;100334.19;31092678;28;96702;-71
2022/10/03 12:36:18;;;;;;;1.97;1.20;;;;;;;17.57;72.62;100354.16;31103881;28;97265;-69
2022/10/03 12:51:36;;;;;;;6.97;1.23;;;;;;;19.45;62.34;100356.38;31111441;28;96755;-68
2022/10/03 13:07:01;;;;;;;5.40;1.30;;;;;;;20.45;54.91;100362.41;31112406;28;96832;-68
2022/10/03 13:22:20;;;;;;;4.90;1.40;;;;;;;16.46;59.57;100356.53;31109399;28;97595;-64
2022/10/03 13:37:32;;;;;;;4.77;1.30;;;;;;;15.80;60.89;100368.75;31107640;28;97231;-65
2022/10/03 13:52:41;;;;;;;2.93;1.03;;;;;;;18.32;59.27;100368.97;31105901;28;97344;-69
2022/10/03 14:07:55;;;;;;;3.37;1.23;;;;;;;16.25;59.29;100370.94;31104153;28;96723;-67
2022/10/03 14:23:08;;;;;;;5.67;1.53;;;;;;;14.99;61.54;100380.00;31103466;28;96641;-70
2022/10/03 14:38:22;;;;;;;3.43;1.00;;;;;;;14.10;62.78;100383.88;31103404;28;96783;-69
2022/10/03 14:53:28;;;;;;;9.87;1.67;;;;;;;13.78;63.59;100380.59;31101280;28;97367;-69
2022/10/03 15:08:55;;;;;;;4.90;1.40;;;;;;;14.06;63.69;100367.34;31099472;28;96847;-68
2022/10/03 15:24:01;;;;;;;6.47;1.40;;;;;;;13.99;64.00;100387.88;31098681;28;97117;-70
2022/10/03 15:39:16;;;;;;;5.40;1.70;;;;;;;14.17;63.25;100382.09;31096127;28;96716;-69
2022/10/03 15:54:23;;;;;;;9.83;2.20;;;;;;;13.39;63.48;100390.56;31095262;28;97330;-71
2022/10/03 16:09:45;;;;;;;4.80;1.90;;;;;;;12.53;64.82;100409.53;31107162;28;96677;-70
2022/10/03 16:24:50;;;;;;;6.50;1.90;;;;;;;12.07;65.94;100429.00;31113834;28;96865;-70
2022/10/03 16:40:00;;;;;;;7.63;1.87;;;;;;;11.47;66.37;100425.84;31112359;28;96781;-65
2022/10/03 16:55:13;;;;;;;8.43;2.23;;;;;;;11.40;68.03;100427.53;31111519;28;96842;-65
2022/10/03 17:10:27;;;;;;;8.03;2.37;;;;;;;11.35;68.43;100421.84;31107850;28;99647;-71
2022/10/03 17:25:42;;;;;;;3.80;1.70;;;;;;;11.09;68.75;100428.22;31107115;28;96863;-73
2022/10/03 17:40:51;;;;;;;8.07;2.73;;;;;;;10.75;69.99;100425.72;31107333;28;97574;-69
2022/10/03 17:56:03;;;;;;;10.77;2.50;;;;;;;10.45;71.19;100431.50;31105036;28;96766;-66
2022/10/03 18:11:08;;;;;;;7.73;2.97;;;;;;;10.30;72.13;100422.47;31099898;28;96860;-65
2022/10/03 18:26:22;;;;;;;14.07;3.97;;;;;;;10.26;73.31;100427.25;31105041;28;97579;-65
2022/10/03 18:41:24;;;;;;;6.80;2.50;;;;;;;10.58;73.91;100430.19;31104273;28;96672;-64
2022/10/03 18:56:26;;;;;;;12.10;3.30;;;;;;;10.79;73.89;100433.22;31103582;28;96998;-62
2022/10/03 19:11:43;;;;;;;10.13;2.93;;;;;;;10.94;74.17;100436.06;31101097;28;97171;-63
2022/10/03 19:26:48;;;;;;;11.70;2.87;;;;;;;11.04;74.33;100433.22;31094086;28;97072;-64
2022/10/03 19:42:09;;;;;;;8.73;2.33;;;;;;;10.99;74.97;100438.25;31104168;28;96769;-64
2022/10/03 19:57:16;;;;;;;5.83;1.63;;;;;;;10.83;74.90;100447.88;31114988;28;97401;-63
2022/10/03 20:12:17;;;;;;;5.03;1.33;;;;;;;10.86;75.11;100429.91;31115717;28;97344;-63
2022/10/03 20:27:30;;;;;;;7.43;1.93;;;;;;;10.86;75.81;100436.06;31126281;28;97232;-62
2022/10/03 20:42:32;;;;;;;6.97;1.90;;;;;;;10.81;75.76;100433.91;31113377;28;102859;-64
2022/10/03 20:57:50;;;;;;;5.20;2.27;;;;;;;10.69;76.82;100442.34;31110584;28;97943;-62
2022/10/03 21:12:56;;;;;;;6.43;2.90;;;;;;;10.79;76.51;100448.38;31114349;28;97399;-62
2022/10/03 21:27:57;;;;;;;8.03;1.97;;;;;;;10.81;76.72;100441.03;31111180;28;97048;-62
2022/10/03 21:43:34;;;;;;;11.88;2.00;;;;;;;10.81;77.11;100449.88;31112794;28;96822;-62
2022/10/03 21:58:40;;;;;;;6.03;1.70;;;;;;;10.48;77.38;100441.00;31107218;28;96769;-61
2022/10/03 22:13:51;;;;;;;5.00;1.70;;;;;;;10.71;77.45;100427.06;31106787;28;96928;-60
2022/10/03 22:29:04;;;;;;;9.87;2.33;;;;;;;10.60;77.01;100428.22;31105468;28;96697;-59
2022/10/03 22:44:07;;;;;;;6.73;2.03;;;;;;;10.61;77.80;100430.69;31104533;28;97511;-60
2022/10/03 22:59:17;;;;;;;8.93;2.67;;;;;;;10.70;77.56;100420.06;31103042;28;96727;-67
2022/10/03 23:14:28;;;;;;;5.60;2.00;;;;;;;10.61;77.55;100438.69;31100835;28;96674;-65
2022/10/03 23:29:28;;;;;;;10.30;2.00;;;;;;;10.68;77.60;100425.56;31100120;28;96790;-67
2022/10/03 23:44:45;;;;;;;6.70;2.20;;;;;;;10.69;78.11;100432.56;31099460;28;96758;-63
2022/10/03 23:59:47;;;;;;;9.93;3.30;;;;;;;10.63;78.19;100441.19;31098030;28;96679;-64
